sensor_id;sensor_type;location;lat;lon;timestamp;temperature;humidity
9167;DHT22;4618;48.818;9.088;2022-12-29T00:01:36;10.70;99.90
9167;DHT22;4618;48.818;9.088;2022-12-29T00:04:01;10.50;99.90
9167;DHT22;4618;48.818;9.088;2022-12-29T00:06:27;10.50;99.90
9167;DHT22;4618;48.818;9.088;2022-12-29T00:08:53;10.60;99.90
9167;DHT22;4618;48.818;9.088;2022-12-29T00:11:26;10.60;99.90
9167;DHT22;4618;48.818;9.088;2022-12-29T00:13:53;10.50;99.90
9167;DHT22;4618;48.818;9.088;2022-12-29T00:16:39;10.40;99.90
9167;DHT22;4618;48.818;9.088;2022-12-29T00:19:05;10.40;99.90
9167;DHT22;4618;48.818;9.088;2022-12-29T00:21:31;10.50;99.90
9167;DHT22;4618;48.818;9.088;2022-12-29T00:24:18;10.50;99.90
9167;DHT22;4618;48.818;9.088;2022-12-29T00:29:47;10.40;99.90
9167;DHT22;4618;48.818;9.088;2022-12-29T00:32:32;10.40;99.90
9167;DHT22;4618;48.818;9.088;2022-12-29T00:35:25;10.40;99.90
9167;DHT22;4618;48.818;9.088;2022-12-29T00:37:52;10.30;99.90
9167;DHT22;4618;48.818;9.088;2022-12-29T00:40:37;10.30;1.00
9167;DHT22;4618;48.818;9.088;2022-12-29T00:43:21;10.50;99.90
9167;DHT22;4618;48.818;9.088;2022-12-29T00:46:05;10.50;99.90
9167;DHT22;4618;48.818;9.088;2022-12-29T00:48:31;10.50;99.90
9167;DHT22;4618;48.818;9.088;2022-12-29T00:51:15;10.60;99.90
9167;DHT22;4618;48.818;9.088;2022-12-29T00:53:40;10.70;99.90
9167;DHT22;4618;48.818;9.088;2022-12-29T00:56:06;10.70;99.90
9167;DHT22;4618;48.818;9.088;2022-12-29T00:58:31;10.60;99.90
9167;DHT22;4618;48.818;9.088;2022-12-29T01:01:04;10.60;99.90
9167;DHT22;4618;48.818;9.088;2022-12-29T01:03:30;10.60;99.90
9167;DHT22;4618;48.818;9.088;2022-12-29T01:05:56;10.80;99.90
9167;DHT22;4618;48.818;9.088;2022-12-29T01:08:21;10.80;99.90
9167;DHT22;4618;48.818;9.088;2022-12-29T01:10:58;10.90;99.90
9167;DHT22;4618;48.818;9.088;2022-12-29T01:13:23;11.00;99.90
9167;DHT22;4618;48.818;9.088;2022-12-29T01:15:50;11.00;99.90
9167;DHT22;4618;48.818;9.088;2022-12-29T01:18:16;11.00;99.90
9167;DHT22;4618;48.818;9.088;2022-12-29T01:20:41;11.10;99.90
9167;DHT22;4618;48.818;9.088;2022-12-29T01:23:07;11.10;99.90
9167;DHT22;4618;48.818;9.088;2022-12-29T01:25:32;11.20;99.90
9167;DHT22;4618;48.818;9.088;2022-12-29T01:27:58;11.30;99.90
9167;DHT22;4618;48.818;9.088;2022-12-29T01:30:23;11.30;99.90
9167;DHT22;4618;48.818;9.088;2022-12-29T01:32:49;11.30;99.90
9167;DHT22;4618;48.818;9.088;2022-12-29T01:35:14;11.30;99.90
9167;DHT22;4618;48.818;9.088;2022-12-29T01:37:40;11.30;99.90
9167;DHT22;4618;48.818;9.088;2022-12-29T01:40:06;11.30;99.90
9167;DHT22;4618;48.818;9.088;2022-12-29T01:42:32;11.40;99.90
9167;DHT22;4618;48.818;9.088;2022-12-29T01:45:02;11.40;99.90
9167;DHT22;4618;48.818;9.088;2022-12-29T01:47:33;11.40;99.90
9167;DHT22;4618;48.818;9.088;2022-12-29T01:50:11;11.50;99.90
9167;DHT22;4618;48.818;9.088;2022-12-29T01:52:47;11.50;99.90
9167;DHT22;4618;48.818;9.088;2022-12-29T01:55:15;11.50;99.90
9167;DHT22;4618;48.818;9.088;2022-12-29T01:57:45;11.50;99.90
9167;DHT22;4618;48.818;9.088;2022-12-29T02:00:13;11.40;99.90
9167;DHT22;4618;48.818;9.088;2022-12-29T02:02:42;11.40;99.90
9167;DHT22;4618;48.818;9.088;2022-12-29T02:05:24;11.40;99.90
9167;DHT22;4618;48.818;9.088;2022-12-29T02:07:52;11.40;99.90
9167;DHT22;4618;48.818;9.088;2022-12-29T02:10:20;11.40;99.90
9167;DHT22;4618;48.818;9.088;2022-12-29T02:12:46;11.40;99.90
9167;DHT22;4618;48.818;9.088;2022-12-29T02:15:12;11.40;99.90
9167;DHT22;4618;48.818;9.088;2022-12-29T02:20:27;11.40;99.90
9167;DHT22;4618;48.818;9.088;2022-12-29T02:37:05;11.60;99.90
9167;DHT22;4618;48.818;9.088;2022-12-29T02:42:49;11.70;99.90
9167;DHT22;4618;48.818;9.088;2022-12-29T02:50:37;11.70;99.90
9167;DHT22;4618;48.818;9.088;2022-12-29T02:53:11;11.70;99.90
9167;DHT22;4618;48.818;9.088;2022-12-29T02:55:37;11.70;99.90
9167;DHT22;4618;48.818;9.088;2022-12-29T03:00:38;11.80;99.90
9167;DHT22;4618;48.818;9.088;2022-12-29T03:03:28;11.80;99.90
9167;DHT22;4618;48.818;9.088;2022-12-29T03:06:20;11.90;99.90
9167;DHT22;4618;48.818;9.088;2022-12-29T03:11:59;11.90;99.90
9167;DHT22;4618;48.818;9.088;2022-12-29T03:17:48;11.90;99.90
9167;DHT22;4618;48.818;9.088;2022-12-29T03:20:54;12.00;99.90
9167;DHT22;4618;48.818;9.088;2022-12-29T03:23:12;12.00;99.90
9167;DHT22;4618;48.818;9.088;2022-12-29T03:25:42;12.00;99.90
9167;DHT22;4618;48.818;9.088;2022-12-29T03:28:12;11.90;99.90
9167;DHT22;4618;48.818;9.088;2022-12-29T03:30:40;11.90;99.90
9167;DHT22;4618;48.818;9.088;2022-12-29T03:33:10;11.90;99.90
9167;DHT22;4618;48.818;9.088;2022-12-29T03:35:38;11.80;99.90
9167;DHT22;4618;48.818;9.088;2022-12-29T03:38:11;11.80;99.90
9167;DHT22;4618;48.818;9.088;2022-12-29T03:40:40;11.80;99.90
9167;DHT22;4618;48.818;9.088;2022-12-29T03:43:08;11.90;99.90
9167;DHT22;4618;48.818;9.088;2022-12-29T03:45:34;11.90;99.90
9167;DHT22;4618;48.818;9.088;2022-12-29T03:47:59;11.90;99.90
9167;DHT22;4618;48.818;9.088;2022-12-29T03:50:25;12.00;99.90
9167;DHT22;4618;48.818;9.088;2022-12-29T03:52:50;11.80;99.90
9167;DHT22;4618;48.818;9.088;2022-12-29T03:55:16;11.80;99.90
9167;DHT22;4618;48.818;9.088;2022-12-29T03:57:41;11.70;99.90
9167;DHT22;4618;48.818;9.088;2022-12-29T04:00:09;11.70;99.90
9167;DHT22;4618;48.818;9.088;2022-12-29T04:02:34;11.60;99.90
9167;DHT22;4618;48.818;9.088;2022-12-29T04:05:00;11.60;99.90
9167;DHT22;4618;48.818;9.088;2022-12-29T04:07:25;11.60;99.90
9167;DHT22;4618;48.818;9.088;2022-12-29T04:09:51;11.50;99.90
9167;DHT22;4618;48.818;9.088;2022-12-29T04:12:17;11.50;99.90
9167;DHT22;4618;48.818;9.088;2022-12-29T04:14:42;11.40;99.90
9167;DHT22;4618;48.818;9.088;2022-12-29T04:17:08;11.40;99.90
9167;DHT22;4618;48.818;9.088;2022-12-29T04:19:33;11.40;99.90
9167;DHT22;4618;48.818;9.088;2022-12-29T04:21:59;11.50;99.90
9167;DHT22;4618;48.818;9.088;2022-12-29T04:24:24;11.60;99.90
9167;DHT22;4618;48.818;9.088;2022-12-29T04:26:50;11.50;99.90
9167;DHT22;4618;48.818;9.088;2022-12-29T04:29:15;11.50;99.90
9167;DHT22;4618;48.818;9.088;2022-12-29T04:31:41;11.60;99.90
9167;DHT22;4618;48.818;9.088;2022-12-29T04:34:07;11.50;99.90
9167;DHT22;4618;48.818;9.088;2022-12-29T04:36:32;11.50;99.90
9167;DHT22;4618;48.818;9.088;2022-12-29T04:38:58;11.50;99.90
9167;DHT22;4618;48.818;9.088;2022-12-29T04:41:24;11.40;99.90
9167;DHT22;4618;48.818;9.088;2022-12-29T04:43:50;11.20;99.90
9167;DHT22;4618;48.818;9.088;2022-12-29T04:46:16;11.20;99.90
9167;DHT22;4618;48.818;9.088;2022-12-29T04:48:41;11.30;99.90
9167;DHT22;4618;48.818;9.088;2022-12-29T04:51:07;11.20;1.00
9167;DHT22;4618;48.818;9.088;2022-12-29T04:53:32;11.20;1.00
9167;DHT22;4618;48.818;9.088;2022-12-29T04:55:58;11.20;1.00
9167;DHT22;4618;48.818;9.088;2022-12-29T04:58:24;11.20;1.00
9167;DHT22;4618;48.818;9.088;2022-12-29T05:00:50;11.30;1.00
9167;DHT22;4618;48.818;9.088;2022-12-29T05:03:16;11.10;1.00
9167;DHT22;4618;48.818;9.088;2022-12-29T05:05:42;11.10;1.00
9167;DHT22;4618;48.818;9.088;2022-12-29T05:08:07;11.20;1.00
9167;DHT22;4618;48.818;9.088;2022-12-29T05:10:33;11.20;1.00
9167;DHT22;4618;48.818;9.088;2022-12-29T05:12:58;11.30;1.00
9167;DHT22;4618;48.818;9.088;2022-12-29T05:15:25;11.30;1.00
9167;DHT22;4618;48.818;9.088;2022-12-29T05:17:50;11.50;1.00
9167;DHT22;4618;48.818;9.088;2022-12-29T05:20:16;11.50;1.00
9167;DHT22;4618;48.818;9.088;2022-12-29T05:22:41;11.50;1.00
9167;DHT22;4618;48.818;9.088;2022-12-29T05:25:08;11.50;1.00
9167;DHT22;4618;48.818;9.088;2022-12-29T05:27:34;11.60;1.00
9167;DHT22;4618;48.818;9.088;2022-12-29T05:30:00;11.60;1.00
9167;DHT22;4618;48.818;9.088;2022-12-29T05:32:25;11.60;1.00
9167;DHT22;4618;48.818;9.088;2022-12-29T05:34:51;11.60;1.00
9167;DHT22;4618;48.818;9.088;2022-12-29T05:37:16;11.70;1.00
9167;DHT22;4618;48.818;9.088;2022-12-29T05:39:42;12.00;99.90
9167;DHT22;4618;48.818;9.088;2022-12-29T05:42:08;12.00;99.90
9167;DHT22;4618;48.818;9.088;2022-12-29T05:44:33;11.90;99.90
9167;DHT22;4618;48.818;9.088;2022-12-29T05:46:59;11.90;99.90
9167;DHT22;4618;48.818;9.088;2022-12-29T05:49:25;12.00;99.90
9167;DHT22;4618;48.818;9.088;2022-12-29T05:51:50;11.90;99.90
9167;DHT22;4618;48.818;9.088;2022-12-29T05:54:16;11.90;99.90
9167;DHT22;4618;48.818;9.088;2022-12-29T05:56:41;12.00;99.90
9167;DHT22;4618;48.818;9.088;2022-12-29T05:59:07;12.00;99.90
9167;DHT22;4618;48.818;9.088;2022-12-29T06:01:32;12.10;99.90
9167;DHT22;4618;48.818;9.088;2022-12-29T06:03:59;12.00;99.90
9167;DHT22;4618;48.818;9.088;2022-12-29T06:06:25;11.90;99.90
9167;DHT22;4618;48.818;9.088;2022-12-29T06:08:50;11.80;99.90
9167;DHT22;4618;48.818;9.088;2022-12-29T06:11:16;11.70;99.90
9167;DHT22;4618;48.818;9.088;2022-12-29T06:13:42;11.60;1.00
9167;DHT22;4618;48.818;9.088;2022-12-29T06:16:08;11.70;1.00
9167;DHT22;4618;48.818;9.088;2022-12-29T06:18:33;11.60;1.00
9167;DHT22;4618;48.818;9.088;2022-12-29T06:21:03;11.70;99.90
9167;DHT22;4618;48.818;9.088;2022-12-29T06:23:29;11.60;1.00
9167;DHT22;4618;48.818;9.088;2022-12-29T06:25:55;11.70;99.90
9167;DHT22;4618;48.818;9.088;2022-12-29T06:28:21;11.80;99.90
9167;DHT22;4618;48.818;9.088;2022-12-29T06:30:47;11.60;1.00
9167;DHT22;4618;48.818;9.088;2022-12-29T06:33:14;11.60;99.90
9167;DHT22;4618;48.818;9.088;2022-12-29T06:35:40;11.70;99.90
9167;DHT22;4618;48.818;9.088;2022-12-29T06:38:06;11.60;99.90
9167;DHT22;4618;48.818;9.088;2022-12-29T06:40:32;11.60;99.90
9167;DHT22;4618;48.818;9.088;2022-12-29T06:42:57;11.70;99.90
9167;DHT22;4618;48.818;9.088;2022-12-29T06:45:23;11.70;99.90
9167;DHT22;4618;48.818;9.088;2022-12-29T06:47:48;11.60;99.90
9167;DHT22;4618;48.818;9.088;2022-12-29T06:50:14;11.50;1.00
9167;DHT22;4618;48.818;9.088;2022-12-29T06:52:40;11.40;1.00
9167;DHT22;4618;48.818;9.088;2022-12-29T06:55:06;11.50;99.90
9167;DHT22;4618;48.818;9.088;2022-12-29T06:57:32;11.40;1.00
9167;DHT22;4618;48.818;9.088;2022-12-29T06:59:57;11.50;99.90
9167;DHT22;4618;48.818;9.088;2022-12-29T07:02:23;11.60;99.90
9167;DHT22;4618;48.818;9.088;2022-12-29T07:04:51;11.70;99.90
9167;DHT22;4618;48.818;9.088;2022-12-29T07:07:18;11.70;99.90
9167;DHT22;4618;48.818;9.088;2022-12-29T07:09:44;11.70;99.90
9167;DHT22;4618;48.818;9.088;2022-12-29T07:12:09;11.70;99.90
9167;DHT22;4618;48.818;9.088;2022-12-29T07:14:35;11.70;99.90
9167;DHT22;4618;48.818;9.088;2022-12-29T07:19:31;11.50;99.90
9167;DHT22;4618;48.818;9.088;2022-12-29T07:21:57;11.50;99.90
9167;DHT22;4618;48.818;9.088;2022-12-29T07:24:22;11.50;99.90
9167;DHT22;4618;48.818;9.088;2022-12-29T07:26:51;11.40;99.90
9167;DHT22;4618;48.818;9.088;2022-12-29T07:29:16;11.30;99.90
9167;DHT22;4618;48.818;9.088;2022-12-29T07:31:42;11.20;1.00
9167;DHT22;4618;48.818;9.088;2022-12-29T07:34:08;11.30;99.90
9167;DHT22;4618;48.818;9.088;2022-12-29T07:36:34;11.30;99.90
9167;DHT22;4618;48.818;9.088;2022-12-29T07:38:59;11.30;99.90
9167;DHT22;4618;48.818;9.088;2022-12-29T07:41:25;11.20;99.90
9167;DHT22;4618;48.818;9.088;2022-12-29T07:43:50;11.30;99.90
9167;DHT22;4618;48.818;9.088;2022-12-29T07:46:16;11.20;99.90
9167;DHT22;4618;48.818;9.088;2022-12-29T07:48:42;11.20;99.90
9167;DHT22;4618;48.818;9.088;2022-12-29T07:51:07;11.20;99.90
9167;DHT22;4618;48.818;9.088;2022-12-29T07:53:33;11.20;99.90
9167;DHT22;4618;48.818;9.088;2022-12-29T07:55:58;11.30;99.90
9167;DHT22;4618;48.818;9.088;2022-12-29T07:58:24;11.20;99.90
9167;DHT22;4618;48.818;9.088;2022-12-29T08:00:56;11.20;99.90
9167;DHT22;4618;48.818;9.088;2022-12-29T08:03:22;11.30;99.90
9167;DHT22;4618;48.818;9.088;2022-12-29T08:05:49;11.20;99.90
9167;DHT22;4618;48.818;9.088;2022-12-29T08:08:14;11.30;99.90
9167;DHT22;4618;48.818;9.088;2022-12-29T08:10:40;11.40;99.90
9167;DHT22;4618;48.818;9.088;2022-12-29T08:13:06;11.40;99.90
9167;DHT22;4618;48.818;9.088;2022-12-29T08:15:31;11.40;99.90
9167;DHT22;4618;48.818;9.088;2022-12-29T08:17:57;11.40;99.90
9167;DHT22;4618;48.818;9.088;2022-12-29T08:20:22;11.50;99.90
9167;DHT22;4618;48.818;9.088;2022-12-29T08:22:48;11.40;99.90
9167;DHT22;4618;48.818;9.088;2022-12-29T08:25:14;11.60;99.90
9167;DHT22;4618;48.818;9.088;2022-12-29T08:27:39;11.50;99.90
9167;DHT22;4618;48.818;9.088;2022-12-29T08:30:05;11.50;99.90
9167;DHT22;4618;48.818;9.088;2022-12-29T08:32:31;11.60;99.90
9167;DHT22;4618;48.818;9.088;2022-12-29T08:34:56;11.60;99.90
9167;DHT22;4618;48.818;9.088;2022-12-29T08:37:22;11.50;99.90
9167;DHT22;4618;48.818;9.088;2022-12-29T08:39:48;11.50;99.90
9167;DHT22;4618;48.818;9.088;2022-12-29T08:42:13;11.50;99.90
9167;DHT22;4618;48.818;9.088;2022-12-29T08:44:39;11.60;99.90
9167;DHT22;4618;48.818;9.088;2022-12-29T08:47:05;11.60;99.90
9167;DHT22;4618;48.818;9.088;2022-12-29T08:49:31;11.70;99.90
9167;DHT22;4618;48.818;9.088;2022-12-29T08:51:59;11.70;99.90
9167;DHT22;4618;48.818;9.088;2022-12-29T08:54:24;11.80;99.90
9167;DHT22;4618;48.818;9.088;2022-12-29T08:56:50;11.80;99.90
9167;DHT22;4618;48.818;9.088;2022-12-29T08:59:16;11.80;99.90
9167;DHT22;4618;48.818;9.088;2022-12-29T09:01:41;11.80;99.90
9167;DHT22;4618;48.818;9.088;2022-12-29T09:04:07;11.70;99.90
9167;DHT22;4618;48.818;9.088;2022-12-29T09:06:33;11.80;99.90
9167;DHT22;4618;48.818;9.088;2022-12-29T09:08:59;11.90;99.90
9167;DHT22;4618;48.818;9.088;2022-12-29T09:11:25;12.00;99.90
9167;DHT22;4618;48.818;9.088;2022-12-29T09:13:52;12.00;99.90
9167;DHT22;4618;48.818;9.088;2022-12-29T09:16:18;12.20;99.90
9167;DHT22;4618;48.818;9.088;2022-12-29T09:18:44;12.30;99.90
9167;DHT22;4618;48.818;9.088;2022-12-29T09:21:10;12.30;99.90
9167;DHT22;4618;48.818;9.088;2022-12-29T09:23:36;12.50;99.90
9167;DHT22;4618;48.818;9.088;2022-12-29T09:26:03;12.80;99.90
9167;DHT22;4618;48.818;9.088;2022-12-29T09:28:29;12.90;99.90
9167;DHT22;4618;48.818;9.088;2022-12-29T09:30:55;13.10;99.90
9167;DHT22;4618;48.818;9.088;2022-12-29T09:33:20;13.20;99.90
9167;DHT22;4618;48.818;9.088;2022-12-29T09:35:51;13.30;99.90
9167;DHT22;4618;48.818;9.088;2022-12-29T09:38:17;13.40;99.90
9167;DHT22;4618;48.818;9.088;2022-12-29T09:40:45;13.50;97.60
9167;DHT22;4618;48.818;9.088;2022-12-29T09:43:24;13.50;83.10
9167;DHT22;4618;48.818;9.088;2022-12-29T09:45:55;13.70;73.00
9167;DHT22;4618;48.818;9.088;2022-12-29T09:48:29;13.70;55.20
9167;DHT22;4618;48.818;9.088;2022-12-29T09:50:59;13.70;42.90
9167;DHT22;4618;48.818;9.088;2022-12-29T09:53:39;13.90;41.10
9167;DHT22;4618;48.818;9.088;2022-12-29T09:56:16;14.00;32.30
9167;DHT22;4618;48.818;9.088;2022-12-29T09:59:02;14.00;27.70
9167;DHT22;4618;48.818;9.088;2022-12-29T10:01:38;13.90;32.90
9167;DHT22;4618;48.818;9.088;2022-12-29T10:04:06;13.80;37.70
9167;DHT22;4618;48.818;9.088;2022-12-29T10:12:26;13.50;81.40
9167;DHT22;4618;48.818;9.088;2022-12-29T10:20:55;13.40;99.90
9167;DHT22;4618;48.818;9.088;2022-12-29T10:23:35;13.50;99.90
9167;DHT22;4618;48.818;9.088;2022-12-29T10:26:10;13.40;99.90
9167;DHT22;4618;48.818;9.088;2022-12-29T10:28:44;13.40;99.90
9167;DHT22;4618;48.818;9.088;2022-12-29T10:31:16;13.50;99.90
9167;DHT22;4618;48.818;9.088;2022-12-29T10:33:49;13.70;94.30
9167;DHT22;4618;48.818;9.088;2022-12-29T10:36:24;13.80;95.80
9167;DHT22;4618;48.818;9.088;2022-12-29T10:42:07;14.80;22.20
9167;DHT22;4618;48.818;9.088;2022-12-29T10:44:35;14.70;22.70
9167;DHT22;4618;48.818;9.088;2022-12-29T10:47:07;14.40;30.50
9167;DHT22;4618;48.818;9.088;2022-12-29T10:49:40;14.30;35.30
9167;DHT22;4618;48.818;9.088;2022-12-29T10:52:06;14.50;31.00
9167;DHT22;4618;48.818;9.088;2022-12-29T10:54:42;14.40;39.30
9167;DHT22;4618;48.818;9.088;2022-12-29T10:57:32;14.40;28.30
9167;DHT22;4618;48.818;9.088;2022-12-29T10:59:58;14.30;35.60
9167;DHT22;4618;48.818;9.088;2022-12-29T11:02:58;14.20;35.60
9167;DHT22;4618;48.818;9.088;2022-12-29T11:08:24;13.80;59.10
9167;DHT22;4618;48.818;9.088;2022-12-29T11:11:02;13.80;72.10
9167;DHT22;4618;48.818;9.088;2022-12-29T11:13:31;14.00;69.70
9167;DHT22;4618;48.818;9.088;2022-12-29T11:15:57;14.10;52.70
9167;DHT22;4618;48.818;9.088;2022-12-29T11:18:40;14.10;59.80
9167;DHT22;4618;48.818;9.088;2022-12-29T11:24:01;14.00;76.80
9167;DHT22;4618;48.818;9.088;2022-12-29T11:26:27;13.90;72.10
9167;DHT22;4618;48.818;9.088;2022-12-29T11:31:42;13.90;55.30
9167;DHT22;4618;48.818;9.088;2022-12-29T11:34:08;14.00;56.80
9167;DHT22;4618;48.818;9.088;2022-12-29T11:36:35;13.90;55.50
9167;DHT22;4618;48.818;9.088;2022-12-29T11:39:01;13.80;41.40
9167;DHT22;4618;48.818;9.088;2022-12-29T11:41:31;13.70;43.30
9167;DHT22;4618;48.818;9.088;2022-12-29T11:43:59;13.60;31.10
9167;DHT22;4618;48.818;9.088;2022-12-29T11:46:30;13.50;31.60
9167;DHT22;4618;48.818;9.088;2022-12-29T11:48:58;13.50;27.90
9167;DHT22;4618;48.818;9.088;2022-12-29T11:51:43;13.40;62.00
9167;DHT22;4618;48.818;9.088;2022-12-29T11:54:19;13.10;85.50
9167;DHT22;4618;48.818;9.088;2022-12-29T11:56:47;13.00;99.90
9167;DHT22;4618;48.818;9.088;2022-12-29T12:01:58;12.30;3.60
9167;DHT22;4618;48.818;9.088;2022-12-29T12:04:27;12.10;1.00
9167;DHT22;4618;48.818;9.088;2022-12-29T12:09:29;12.00;1.00
9167;DHT22;4618;48.818;9.088;2022-12-29T12:11:57;12.00;1.00
9167;DHT22;4618;48.818;9.088;2022-12-29T12:14:46;11.80;1.00
9167;DHT22;4618;48.818;9.088;2022-12-29T12:17:21;11.90;1.00
9167;DHT22;4618;48.818;9.088;2022-12-29T12:19:58;12.00;1.00
9167;DHT22;4618;48.818;9.088;2022-12-29T12:22:37;12.20;1.00
9167;DHT22;4618;48.818;9.088;2022-12-29T12:25:13;12.20;1.00
9167;DHT22;4618;48.818;9.088;2022-12-29T12:27:51;12.30;99.90
9167;DHT22;4618;48.818;9.088;2022-12-29T12:30:23;12.50;99.90
9167;DHT22;4618;48.818;9.088;2022-12-29T12:38:56;13.10;1.00
9167;DHT22;4618;48.818;9.088;2022-12-29T12:44:09;13.20;1.00
9167;DHT22;4618;48.818;9.088;2022-12-29T12:52:37;13.10;1.00
9167;DHT22;4618;48.818;9.088;2022-12-29T13:00:24;13.20;55.90
9167;DHT22;4618;48.818;9.088;2022-12-29T13:07:03;14.00;1.00
9167;DHT22;4618;48.818;9.088;2022-12-29T13:09:44;14.00;1.00
9167;DHT22;4618;48.818;9.088;2022-12-29T13:12:25;13.30;6.60
9167;DHT22;4618;48.818;9.088;2022-12-29T13:15:20;13.30;99.90
9167;DHT22;4618;48.818;9.088;2022-12-29T13:26:02;12.70;99.90
9167;DHT22;4618;48.818;9.088;2022-12-29T13:28:50;12.70;99.90
9167;DHT22;4618;48.818;9.088;2022-12-29T13:31:30;12.60;99.90
9167;DHT22;4618;48.818;9.088;2022-12-29T13:39:11;12.40;1.00
9167;DHT22;4618;48.818;9.088;2022-12-29T13:41:46;12.40;1.00
9167;DHT22;4618;48.818;9.088;2022-12-29T13:44:20;12.20;1.00
9167;DHT22;4618;48.818;9.088;2022-12-29T13:46:50;12.30;1.00
9167;DHT22;4618;48.818;9.088;2022-12-29T13:49:18;12.40;1.00
9167;DHT22;4618;48.818;9.088;2022-12-29T13:51:56;12.40;1.00
9167;DHT22;4618;48.818;9.088;2022-12-29T13:54:35;12.50;1.00
9167;DHT22;4618;48.818;9.088;2022-12-29T13:57:10;12.40;1.00
9167;DHT22;4618;48.818;9.088;2022-12-29T13:59:44;12.30;1.00
9167;DHT22;4618;48.818;9.088;2022-12-29T14:05:27;12.30;1.00
9167;DHT22;4618;48.818;9.088;2022-12-29T14:08:04;12.30;1.00
9167;DHT22;4618;48.818;9.088;2022-12-29T14:10:36;12.30;1.00
9167;DHT22;4618;48.818;9.088;2022-12-29T14:13:14;12.40;1.00
9167;DHT22;4618;48.818;9.088;2022-12-29T14:15:43;12.30;1.00
9167;DHT22;4618;48.818;9.088;2022-12-29T14:18:17;12.20;1.00
9167;DHT22;4618;48.818;9.088;2022-12-29T14:20:54;12.20;1.00
9167;DHT22;4618;48.818;9.088;2022-12-29T14:23:37;12.40;1.00
9167;DHT22;4618;48.818;9.088;2022-12-29T14:28:39;12.60;1.00
9167;DHT22;4618;48.818;9.088;2022-12-29T14:39:35;12.80;99.90
9167;DHT22;4618;48.818;9.088;2022-12-29T14:47:27;12.20;1.00
9167;DHT22;4618;48.818;9.088;2022-12-29T14:50:26;12.10;1.00
9167;DHT22;4618;48.818;9.088;2022-12-29T14:55:46;12.10;1.00
9167;DHT22;4618;48.818;9.088;2022-12-29T14:58:31;12.10;1.00
9167;DHT22;4618;48.818;9.088;2022-12-29T15:00:58;12.10;1.00
9167;DHT22;4618;48.818;9.088;2022-12-29T15:03:38;12.00;36.40
9167;DHT22;4618;48.818;9.088;2022-12-29T15:06:10;11.90;92.00
9167;DHT22;4618;48.818;9.088;2022-12-29T15:12:01;11.80;99.90
9167;DHT22;4618;48.818;9.088;2022-12-29T15:14:51;11.70;99.90
9167;DHT22;4618;48.818;9.088;2022-12-29T15:17:33;11.60;99.90
9167;DHT22;4618;48.818;9.088;2022-12-29T15:20:01;11.50;99.90
9167;DHT22;4618;48.818;9.088;2022-12-29T15:22:43;11.50;99.90
9167;DHT22;4618;48.818;9.088;2022-12-29T15:25:15;11.50;1.00
9167;DHT22;4618;48.818;9.088;2022-12-29T15:27:41;11.40;1.00
9167;DHT22;4618;48.818;9.088;2022-12-29T15:30:12;11.40;1.00
9167;DHT22;4618;48.818;9.088;2022-12-29T15:32:45;11.40;1.00
9167;DHT22;4618;48.818;9.088;2022-12-29T15:37:51;11.60;99.90
9167;DHT22;4618;48.818;9.088;2022-12-29T15:40:31;11.40;1.00
9167;DHT22;4618;48.818;9.088;2022-12-29T15:45:54;10.40;99.90
9167;DHT22;4618;48.818;9.088;2022-12-29T15:48:22;9.80;99.90
9167;DHT22;4618;48.818;9.088;2022-12-29T15:50:49;9.60;37.50
9167;DHT22;4618;48.818;9.088;2022-12-29T15:53:31;9.50;99.90
9167;DHT22;4618;48.818;9.088;2022-12-29T15:56:11;9.40;1.00
9167;DHT22;4618;48.818;9.088;2022-12-29T15:58:45;9.30;1.00
9167;DHT22;4618;48.818;9.088;2022-12-29T16:03:50;9.30;20.40
9167;DHT22;4618;48.818;9.088;2022-12-29T16:09:18;9.20;99.90
9167;DHT22;4618;48.818;9.088;2022-12-29T16:11:53;9.20;1.00
9167;DHT22;4618;48.818;9.088;2022-12-29T16:14:24;9.10;1.00
9167;DHT22;4618;48.818;9.088;2022-12-29T16:16:52;9.10;1.00
9167;DHT22;4618;48.818;9.088;2022-12-29T16:19:37;9.00;1.00
9167;DHT22;4618;48.818;9.088;2022-12-29T16:22:11;9.00;99.90
9167;DHT22;4618;48.818;9.088;2022-12-29T16:24:39;8.90;1.00
9167;DHT22;4618;48.818;9.088;2022-12-29T16:27:50;9.00;1.00
9167;DHT22;4618;48.818;9.088;2022-12-29T16:29:57;8.90;1.00
9167;DHT22;4618;48.818;9.088;2022-12-29T16:32:28;8.90;1.00
9167;DHT22;4618;48.818;9.088;2022-12-29T16:35:18;8.90;1.00
9167;DHT22;4618;48.818;9.088;2022-12-29T16:37:44;8.90;1.00
9167;DHT22;4618;48.818;9.088;2022-12-29T16:40:30;8.90;1.00
9167;DHT22;4618;48.818;9.088;2022-12-29T16:42:58;8.90;1.00
9167;DHT22;4618;48.818;9.088;2022-12-29T16:48:24;8.90;1.00
9167;DHT22;4618;48.818;9.088;2022-12-29T16:50:51;8.90;1.00
9167;DHT22;4618;48.818;9.088;2022-12-29T16:53:28;8.90;1.00
9167;DHT22;4618;48.818;9.088;2022-12-29T16:55:57;8.80;99.90
9167;DHT22;4618;48.818;9.088;2022-12-29T16:58:26;8.80;99.90
9167;DHT22;4618;48.818;9.088;2022-12-29T17:00:58;8.80;99.90
9167;DHT22;4618;48.818;9.088;2022-12-29T17:03:33;8.80;99.90
9167;DHT22;4618;48.818;9.088;2022-12-29T17:05:59;8.80;1.00
9167;DHT22;4618;48.818;9.088;2022-12-29T17:08:25;8.80;99.90
9167;DHT22;4618;48.818;9.088;2022-12-29T17:10:52;8.80;99.90
9167;DHT22;4618;48.818;9.088;2022-12-29T17:13:38;8.80;99.90
9167;DHT22;4618;48.818;9.088;2022-12-29T17:16:05;8.80;1.00
9167;DHT22;4618;48.818;9.088;2022-12-29T17:18:33;8.80;1.00
9167;DHT22;4618;48.818;9.088;2022-12-29T17:20:59;8.80;1.00
9167;DHT22;4618;48.818;9.088;2022-12-29T17:23:25;8.80;1.00
9167;DHT22;4618;48.818;9.088;2022-12-29T17:25:51;8.80;1.00
9167;DHT22;4618;48.818;9.088;2022-12-29T17:28:27;8.80;1.00
9167;DHT22;4618;48.818;9.088;2022-12-29T17:30:57;8.80;1.00
9167;DHT22;4618;48.818;9.088;2022-12-29T17:33:23;8.70;1.00
9167;DHT22;4618;48.818;9.088;2022-12-29T17:36:01;8.70;32.00
9167;DHT22;4618;48.818;9.088;2022-12-29T17:38:33;8.80;99.40
9167;DHT22;4618;48.818;9.088;2022-12-29T17:40:59;8.70;99.90
9167;DHT22;4618;48.818;9.088;2022-12-29T17:43:25;8.60;99.90
9167;DHT22;4618;48.818;9.088;2022-12-29T17:46:00;8.60;99.90
9167;DHT22;4618;48.818;9.088;2022-12-29T17:48:25;8.60;99.90
9167;DHT22;4618;48.818;9.088;2022-12-29T17:50:52;8.60;1.00
9167;DHT22;4618;48.818;9.088;2022-12-29T17:53:23;8.60;1.00
9167;DHT22;4618;48.818;9.088;2022-12-29T17:55:50;8.70;1.00
9167;DHT22;4618;48.818;9.088;2022-12-29T17:58:34;8.70;1.00
9167;DHT22;4618;48.818;9.088;2022-12-29T18:01:01;8.70;1.00
9167;DHT22;4618;48.818;9.088;2022-12-29T18:03:32;8.60;1.00
9167;DHT22;4618;48.818;9.088;2022-12-29T18:06:00;8.70;1.00
9167;DHT22;4618;48.818;9.088;2022-12-29T18:08:26;8.70;1.00
9167;DHT22;4618;48.818;9.088;2022-12-29T18:10:54;8.70;1.00
9167;DHT22;4618;48.818;9.088;2022-12-29T18:13:24;8.70;1.00
9167;DHT22;4618;48.818;9.088;2022-12-29T18:15:52;8.70;99.90
9167;DHT22;4618;48.818;9.088;2022-12-29T18:18:19;8.70;99.90
9167;DHT22;4618;48.818;9.088;2022-12-29T18:20:47;8.60;99.90
9167;DHT22;4618;48.818;9.088;2022-12-29T18:23:23;8.60;60.10
9167;DHT22;4618;48.818;9.088;2022-12-29T18:25:55;8.50;99.90
9167;DHT22;4618;48.818;9.088;2022-12-29T18:28:22;8.50;99.90
9167;DHT22;4618;48.818;9.088;2022-12-29T18:30:49;8.50;1.00
9167;DHT22;4618;48.818;9.088;2022-12-29T18:33:17;8.50;1.00
9167;DHT22;4618;48.818;9.088;2022-12-29T18:35:52;8.50;99.90
9167;DHT22;4618;48.818;9.088;2022-12-29T18:38:19;8.40;99.90
9167;DHT22;4618;48.818;9.088;2022-12-29T18:40:46;8.40;99.90
9167;DHT22;4618;48.818;9.088;2022-12-29T18:43:13;8.30;99.90
9167;DHT22;4618;48.818;9.088;2022-12-29T18:45:39;8.30;99.90
9167;DHT22;4618;48.818;9.088;2022-12-29T18:48:04;8.30;1.00
9167;DHT22;4618;48.818;9.088;2022-12-29T18:50:30;8.40;1.00
9167;DHT22;4618;48.818;9.088;2022-12-29T18:52:56;8.30;77.90